sensor_id;sensor_type;location;lat;lon;timestamp;temperature;humidity
25652;DHT22;13508;50.734;4.232;2024-01-30T00:01:55;11.00;99.90
25652;DHT22;13508;50.734;4.232;2024-01-30T00:04:58;11.00;99.90
25652;DHT22;13508;50.734;4.232;2024-01-30T00:08:02;10.90;99.90
25652;DHT22;13508;50.734;4.232;2024-01-30T00:11:07;10.90;99.90
25652;DHT22;13508;50.734;4.232;2024-01-30T00:14:13;11.00;99.90
25652;DHT22;13508;50.734;4.232;2024-01-30T00:17:19;11.10;99.90
25652;DHT22;13508;50.734;4.232;2024-01-30T00:20:25;11.20;99.90
25652;DHT22;13508;50.734;4.232;2024-01-30T00:23:28;11.20;99.90
25652;DHT22;13508;50.734;4.232;2024-01-30T00:26:32;11.10;99.90
25652;DHT22;13508;50.734;4.232;2024-01-30T00:29:35;11.20;99.90
25652;DHT22;13508;50.734;4.232;2024-01-30T00:32:38;11.20;99.90
25652;DHT22;13508;50.734;4.232;2024-01-30T00:35:42;11.40;99.90
25652;DHT22;13508;50.734;4.232;2024-01-30T00:38:47;11.40;99.90
25652;DHT22;13508;50.734;4.232;2024-01-30T00:41:51;11.20;99.90
25652;DHT22;13508;50.734;4.232;2024-01-30T00:44:55;11.20;99.90
25652;DHT22;13508;50.734;4.232;2024-01-30T00:47:58;11.20;99.90
25652;DHT22;13508;50.734;4.232;2024-01-30T00:51:01;11.30;99.90
25652;DHT22;13508;50.734;4.232;2024-01-30T00:54:05;11.30;99.90
25652;DHT22;13508;50.734;4.232;2024-01-30T00:57:09;11.20;99.90
25652;DHT22;13508;50.734;4.232;2024-01-30T01:00:13;11.00;99.90
25652;DHT22;13508;50.734;4.232;2024-01-30T01:03:19;11.00;99.90
25652;DHT22;13508;50.734;4.232;2024-01-30T01:06:23;11.20;99.90
25652;DHT22;13508;50.734;4.232;2024-01-30T01:09:27;11.30;99.90
25652;DHT22;13508;50.734;4.232;2024-01-30T01:12:30;11.20;99.90
25652;DHT22;13508;50.734;4.232;2024-01-30T01:15:33;11.20;99.90
25652;DHT22;13508;50.734;4.232;2024-01-30T01:18:37;11.20;99.90
25652;DHT22;13508;50.734;4.232;2024-01-30T01:21:40;11.30;99.90
25652;DHT22;13508;50.734;4.232;2024-01-30T01:24:44;11.30;99.90
25652;DHT22;13508;50.734;4.232;2024-01-30T01:27:47;11.30;99.90
25652;DHT22;13508;50.734;4.232;2024-01-30T01:30:54;11.50;99.90
25652;DHT22;13508;50.734;4.232;2024-01-30T01:34:01;11.40;99.90
25652;DHT22;13508;50.734;4.232;2024-01-30T01:37:06;11.50;99.90
25652;DHT22;13508;50.734;4.232;2024-01-30T01:40:10;11.40;99.90
25652;DHT22;13508;50.734;4.232;2024-01-30T01:43:14;11.60;99.90
25652;DHT22;13508;50.734;4.232;2024-01-30T01:46:17;11.60;99.90
25652;DHT22;13508;50.734;4.232;2024-01-30T01:49:26;11.60;99.90
25652;DHT22;13508;50.734;4.232;2024-01-30T01:52:30;11.60;99.90
25652;DHT22;13508;50.734;4.232;2024-01-30T01:55:35;11.70;99.90
25652;DHT22;13508;50.734;4.232;2024-01-30T01:58:38;11.60;99.90
25652;DHT22;13508;50.734;4.232;2024-01-30T02:01:42;11.60;99.90
25652;DHT22;13508;50.734;4.232;2024-01-30T02:04:45;11.60;99.90
25652;DHT22;13508;50.734;4.232;2024-01-30T02:07:50;11.40;99.90
25652;DHT22;13508;50.734;4.232;2024-01-30T02:10:54;11.50;99.90
25652;DHT22;13508;50.734;4.232;2024-01-30T02:14:02;11.60;99.90
25652;DHT22;13508;50.734;4.232;2024-01-30T02:17:07;11.50;99.90
25652;DHT22;13508;50.734;4.232;2024-01-30T02:20:11;11.50;99.90
25652;DHT22;13508;50.734;4.232;2024-01-30T02:23:19;11.50;99.90
25652;DHT22;13508;50.734;4.232;2024-01-30T02:26:22;11.60;99.90
25652;DHT22;13508;50.734;4.232;2024-01-30T02:29:26;11.60;99.90
25652;DHT22;13508;50.734;4.232;2024-01-30T02:32:29;11.70;99.90
25652;DHT22;13508;50.734;4.232;2024-01-30T02:35:32;11.60;99.90
25652;DHT22;13508;50.734;4.232;2024-01-30T02:38:39;11.50;99.90
25652;DHT22;13508;50.734;4.232;2024-01-30T02:41:42;11.50;99.90
25652;DHT22;13508;50.734;4.232;2024-01-30T02:44:45;11.50;99.90
25652;DHT22;13508;50.734;4.232;2024-01-30T02:47:49;11.40;99.90
25652;DHT22;13508;50.734;4.232;2024-01-30T02:50:52;11.30;99.90
25652;DHT22;13508;50.734;4.232;2024-01-30T02:54:00;11.20;99.90
25652;DHT22;13508;50.734;4.232;2024-01-30T02:57:03;11.20;99.90
25652;DHT22;13508;50.734;4.232;2024-01-30T03:00:07;11.20;99.90
25652;DHT22;13508;50.734;4.232;2024-01-30T03:03:12;11.30;99.90
25652;DHT22;13508;50.734;4.232;2024-01-30T03:06:15;11.30;99.90
25652;DHT22;13508;50.734;4.232;2024-01-30T03:09:20;11.30;99.90
25652;DHT22;13508;50.734;4.232;2024-01-30T03:12:24;11.40;99.90
25652;DHT22;13508;50.734;4.232;2024-01-30T03:15:27;11.30;99.90
25652;DHT22;13508;50.734;4.232;2024-01-30T03:18:30;11.40;99.90
25652;DHT22;13508;50.734;4.232;2024-01-30T03:21:33;11.50;99.90
25652;DHT22;13508;50.734;4.232;2024-01-30T03:24:37;11.50;99.90
25652;DHT22;13508;50.734;4.232;2024-01-30T03:27:40;11.40;99.90
25652;DHT22;13508;50.734;4.232;2024-01-30T03:30:44;11.40;99.90
25652;DHT22;13508;50.734;4.232;2024-01-30T03:33:47;11.50;99.90
25652;DHT22;13508;50.734;4.232;2024-01-30T03:36:53;11.50;99.90
25652;DHT22;13508;50.734;4.232;2024-01-30T03:39:56;11.50;99.90
25652;DHT22;13508;50.734;4.232;2024-01-30T03:43:00;11.50;99.90
25652;DHT22;13508;50.734;4.232;2024-01-30T03:46:03;11.40;99.90
25652;DHT22;13508;50.734;4.232;2024-01-30T03:49:07;11.40;99.90
25652;DHT22;13508;50.734;4.232;2024-01-30T03:52:10;11.40;99.90
25652;DHT22;13508;50.734;4.232;2024-01-30T03:55:13;11.40;99.90
25652;DHT22;13508;50.734;4.232;2024-01-30T03:58:17;11.40;99.90
25652;DHT22;13508;50.734;4.232;2024-01-30T04:01:21;11.40;99.90
25652;DHT22;13508;50.734;4.232;2024-01-30T04:04:24;11.50;99.90
25652;DHT22;13508;50.734;4.232;2024-01-30T04:07:28;11.50;99.90
25652;DHT22;13508;50.734;4.232;2024-01-30T04:10:32;11.50;99.90
25652;DHT22;13508;50.734;4.232;2024-01-30T04:13:38;11.50;99.90
25652;DHT22;13508;50.734;4.232;2024-01-30T04:16:41;11.40;99.90
25652;DHT22;13508;50.734;4.232;2024-01-30T04:19:45;11.40;99.90
25652;DHT22;13508;50.734;4.232;2024-01-30T04:22:50;11.30;99.90
25652;DHT22;13508;50.734;4.232;2024-01-30T04:25:55;11.40;99.90
25652;DHT22;13508;50.734;4.232;2024-01-30T04:28:58;11.40;99.90
25652;DHT22;13508;50.734;4.232;2024-01-30T04:32:02;11.40;99.90
25652;DHT22;13508;50.734;4.232;2024-01-30T04:35:05;11.30;99.90
25652;DHT22;13508;50.734;4.232;2024-01-30T04:38:11;11.40;99.90
25652;DHT22;13508;50.734;4.232;2024-01-30T04:41:15;11.30;99.90
25652;DHT22;13508;50.734;4.232;2024-01-30T04:44:18;11.20;99.90
25652;DHT22;13508;50.734;4.232;2024-01-30T04:47:22;11.30;99.90
25652;DHT22;13508;50.734;4.232;2024-01-30T04:50:26;11.30;99.90
25652;DHT22;13508;50.734;4.232;2024-01-30T04:53:30;11.40;99.90
25652;DHT22;13508;50.734;4.232;2024-01-30T04:56:34;11.40;99.90
25652;DHT22;13508;50.734;4.232;2024-01-30T04:59:39;11.50;99.90
25652;DHT22;13508;50.734;4.232;2024-01-30T05:02:42;11.30;99.90
25652;DHT22;13508;50.734;4.232;2024-01-30T05:05:47;11.20;99.90
25652;DHT22;13508;50.734;4.232;2024-01-30T05:08:51;11.10;99.90
25652;DHT22;13508;50.734;4.232;2024-01-30T05:11:56;11.20;99.90
25652;DHT22;13508;50.734;4.232;2024-01-30T05:15:01;11.10;99.90
25652;DHT22;13508;50.734;4.232;2024-01-30T05:18:05;11.10;99.90
25652;DHT22;13508;50.734;4.232;2024-01-30T05:21:08;11.30;99.90
25652;DHT22;13508;50.734;4.232;2024-01-30T05:24:14;11.10;99.90
25652;DHT22;13508;50.734;4.232;2024-01-30T05:27:17;11.00;99.90
25652;DHT22;13508;50.734;4.232;2024-01-30T05:30:21;11.00;99.90
25652;DHT22;13508;50.734;4.232;2024-01-30T05:33:27;11.20;99.90
25652;DHT22;13508;50.734;4.232;2024-01-30T05:36:30;11.10;99.90
25652;DHT22;13508;50.734;4.232;2024-01-30T05:39:33;11.20;99.90
25652;DHT22;13508;50.734;4.232;2024-01-30T05:42:37;11.20;99.90
25652;DHT22;13508;50.734;4.232;2024-01-30T05:45:40;11.20;99.90
25652;DHT22;13508;50.734;4.232;2024-01-30T05:48:44;11.20;99.90
25652;DHT22;13508;50.734;4.232;2024-01-30T05:51:47;11.20;99.90
25652;DHT22;13508;50.734;4.232;2024-01-30T05:54:52;11.20;99.90
25652;DHT22;13508;50.734;4.232;2024-01-30T05:57:55;11.20;99.90
25652;DHT22;13508;50.734;4.232;2024-01-30T06:01:01;11.20;99.90
25652;DHT22;13508;50.734;4.232;2024-01-30T06:04:04;11.20;99.90
25652;DHT22;13508;50.734;4.232;2024-01-30T06:07:07;11.30;99.90
25652;DHT22;13508;50.734;4.232;2024-01-30T06:10:11;11.20;99.90
25652;DHT22;13508;50.734;4.232;2024-01-30T06:13:14;11.10;99.90
25652;DHT22;13508;50.734;4.232;2024-01-30T06:16:20;11.00;99.90
25652;DHT22;13508;50.734;4.232;2024-01-30T06:19:25;10.80;99.90
25652;DHT22;13508;50.734;4.232;2024-01-30T06:22:28;11.00;99.90
25652;DHT22;13508;50.734;4.232;2024-01-30T06:25:31;11.00;99.90
25652;DHT22;13508;50.734;4.232;2024-01-30T06:28:37;11.10;99.90
25652;DHT22;13508;50.734;4.232;2024-01-30T06:31:41;11.10;99.90
25652;DHT22;13508;50.734;4.232;2024-01-30T06:34:44;11.20;99.90
25652;DHT22;13508;50.734;4.232;2024-01-30T06:37:48;11.10;99.90
25652;DHT22;13508;50.734;4.232;2024-01-30T06:40:51;10.90;99.90
25652;DHT22;13508;50.734;4.232;2024-01-30T06:43:58;11.00;99.90
25652;DHT22;13508;50.734;4.232;2024-01-30T06:47:01;10.90;99.90
25652;DHT22;13508;50.734;4.232;2024-01-30T06:50:09;11.00;99.90
25652;DHT22;13508;50.734;4.232;2024-01-30T06:53:15;11.00;99.90
25652;DHT22;13508;50.734;4.232;2024-01-30T06:56:19;10.90;99.90
25652;DHT22;13508;50.734;4.232;2024-01-30T06:59:25;10.90;99.90
25652;DHT22;13508;50.734;4.232;2024-01-30T07:02:29;11.00;99.90
25652;DHT22;13508;50.734;4.232;2024-01-30T07:05:32;10.90;99.90
25652;DHT22;13508;50.734;4.232;2024-01-30T07:08:35;11.00;99.90
25652;DHT22;13508;50.734;4.232;2024-01-30T07:11:42;11.10;99.90
25652;DHT22;13508;50.734;4.232;2024-01-30T07:14:45;11.10;99.90
25652;DHT22;13508;50.734;4.232;2024-01-30T07:17:49;11.20;99.90
25652;DHT22;13508;50.734;4.232;2024-01-30T07:20:52;11.20;99.90
25652;DHT22;13508;50.734;4.232;2024-01-30T07:23:55;11.20;99.90
25652;DHT22;13508;50.734;4.232;2024-01-30T07:26:59;11.10;99.90
25652;DHT22;13508;50.734;4.232;2024-01-30T07:30:03;11.10;99.90
25652;DHT22;13508;50.734;4.232;2024-01-30T07:33:07;11.10;99.90
25652;DHT22;13508;50.734;4.232;2024-01-30T07:36:10;11.10;99.90
25652;DHT22;13508;50.734;4.232;2024-01-30T07:39:14;11.10;99.90
25652;DHT22;13508;50.734;4.232;2024-01-30T07:42:17;11.20;99.90
25652;DHT22;13508;50.734;4.232;2024-01-30T07:45:21;11.20;99.90
25652;DHT22;13508;50.734;4.232;2024-01-30T07:48:25;11.30;99.90
25652;DHT22;13508;50.734;4.232;2024-01-30T07:51:28;11.30;99.90
25652;DHT22;13508;50.734;4.232;2024-01-30T07:54:34;11.20;99.90
25652;DHT22;13508;50.734;4.232;2024-01-30T07:57:39;11.20;99.90
25652;DHT22;13508;50.734;4.232;2024-01-30T08:00:42;11.10;99.90
25652;DHT22;13508;50.734;4.232;2024-01-30T08:03:46;11.30;99.90
25652;DHT22;13508;50.734;4.232;2024-01-30T08:06:50;11.20;99.90
25652;DHT22;13508;50.734;4.232;2024-01-30T08:09:53;11.10;99.90
25652;DHT22;13508;50.734;4.232;2024-01-30T08:12:59;11.30;99.90
25652;DHT22;13508;50.734;4.232;2024-01-30T08:16:07;11.20;99.90
25652;DHT22;13508;50.734;4.232;2024-01-30T08:19:11;11.20;99.90
25652;DHT22;13508;50.734;4.232;2024-01-30T08:22:15;11.10;99.90
25652;DHT22;13508;50.734;4.232;2024-01-30T08:25:18;11.20;99.90
25652;DHT22;13508;50.734;4.232;2024-01-30T08:28:22;11.10;99.90
25652;DHT22;13508;50.734;4.232;2024-01-30T08:31:28;11.20;99.90
25652;DHT22;13508;50.734;4.232;2024-01-30T08:34:31;11.20;99.90
25652;DHT22;13508;50.734;4.232;2024-01-30T08:37:37;11.20;99.90
25652;DHT22;13508;50.734;4.232;2024-01-30T08:40:40;11.20;99.90
25652;DHT22;13508;50.734;4.232;2024-01-30T08:43:46;11.20;99.90
25652;DHT22;13508;50.734;4.232;2024-01-30T08:46:52;11.30;99.90
25652;DHT22;13508;50.734;4.232;2024-01-30T08:49:55;11.50;99.90
25652;DHT22;13508;50.734;4.232;2024-01-30T08:52:59;11.50;99.90
25652;DHT22;13508;50.734;4.232;2024-01-30T08:56:03;11.30;99.90
25652;DHT22;13508;50.734;4.232;2024-01-30T08:59:06;11.50;99.90
25652;DHT22;13508;50.734;4.232;2024-01-30T09:02:13;11.50;99.90
25652;DHT22;13508;50.734;4.232;2024-01-30T09:05:18;11.50;99.90
25652;DHT22;13508;50.734;4.232;2024-01-30T09:08:25;11.40;99.90
25652;DHT22;13508;50.734;4.232;2024-01-30T09:11:27;11.50;99.90
25652;DHT22;13508;50.734;4.232;2024-01-30T09:14:33;11.50;99.90
25652;DHT22;13508;50.734;4.232;2024-01-30T09:17:37;11.50;99.90
25652;DHT22;13508;50.734;4.232;2024-01-30T09:20:40;11.50;99.90
25652;DHT22;13508;50.734;4.232;2024-01-30T09:23:44;11.50;99.90
25652;DHT22;13508;50.734;4.232;2024-01-30T09:26:47;11.60;99.90
25652;DHT22;13508;50.734;4.232;2024-01-30T09:29:51;11.60;99.90
25652;DHT22;13508;50.734;4.232;2024-01-30T09:32:54;11.70;99.90
25652;DHT22;13508;50.734;4.232;2024-01-30T09:36:00;11.50;99.90
25652;DHT22;13508;50.734;4.232;2024-01-30T09:39:07;11.50;99.90
25652;DHT22;13508;50.734;4.232;2024-01-30T09:45:25;11.30;99.90
25652;DHT22;13508;50.734;4.232;2024-01-30T09:48:30;11.50;99.90
25652;DHT22;13508;50.734;4.232;2024-01-30T09:51:34;11.50;99.90
25652;DHT22;13508;50.734;4.232;2024-01-30T09:54:38;11.70;99.90
25652;DHT22;13508;50.734;4.232;2024-01-30T09:57:44;11.50;99.90
25652;DHT22;13508;50.734;4.232;2024-01-30T10:00:47;11.60;99.90
25652;DHT22;13508;50.734;4.232;2024-01-30T10:03:51;11.40;99.90
25652;DHT22;13508;50.734;4.232;2024-01-30T10:06:57;11.50;99.90
25652;DHT22;13508;50.734;4.232;2024-01-30T10:10:04;11.50;99.90
25652;DHT22;13508;50.734;4.232;2024-01-30T10:13:08;11.50;99.90
25652;DHT22;13508;50.734;4.232;2024-01-30T10:16:14;11.50;99.90
25652;DHT22;13508;50.734;4.232;2024-01-30T10:19:19;11.50;99.90
25652;DHT22;13508;50.734;4.232;2024-01-30T10:22:25;11.50;99.90
25652;DHT22;13508;50.734;4.232;2024-01-30T10:25:30;11.30;99.90
25652;DHT22;13508;50.734;4.232;2024-01-30T10:28:34;11.40;99.90
25652;DHT22;13508;50.734;4.232;2024-01-30T10:31:37;11.30;99.90
25652;DHT22;13508;50.734;4.232;2024-01-30T10:34:41;11.50;99.90
25652;DHT22;13508;50.734;4.232;2024-01-30T10:37:49;11.60;99.90
25652;DHT22;13508;50.734;4.232;2024-01-30T10:40:59;11.60;99.90
25652;DHT22;13508;50.734;4.232;2024-01-30T10:44:08;11.60;99.90
25652;DHT22;13508;50.734;4.232;2024-01-30T10:47:12;11.90;99.90
25652;DHT22;13508;50.734;4.232;2024-01-30T10:50:17;11.80;99.90
25652;DHT22;13508;50.734;4.232;2024-01-30T10:53:21;11.70;99.90
25652;DHT22;13508;50.734;4.232;2024-01-30T10:56:25;11.50;99.90
25652;DHT22;13508;50.734;4.232;2024-01-30T10:59:29;11.40;99.90
25652;DHT22;13508;50.734;4.232;2024-01-30T11:02:34;11.20;99.90
25652;DHT22;13508;50.734;4.232;2024-01-30T11:05:40;11.00;99.90
25652;DHT22;13508;50.734;4.232;2024-01-30T11:08:44;10.90;99.90
25652;DHT22;13508;50.734;4.232;2024-01-30T11:11:49;10.80;99.90
25652;DHT22;13508;50.734;4.232;2024-01-30T11:18:07;10.80;99.90
25652;DHT22;13508;50.734;4.232;2024-01-30T11:21:13;10.70;99.90
25652;DHT22;13508;50.734;4.232;2024-01-30T11:24:19;10.70;99.90
25652;DHT22;13508;50.734;4.232;2024-01-30T11:27:22;10.80;99.90
25652;DHT22;13508;50.734;4.232;2024-01-30T11:30:27;10.80;99.90
25652;DHT22;13508;50.734;4.232;2024-01-30T11:33:31;10.90;99.90
25652;DHT22;13508;50.734;4.232;2024-01-30T11:36:36;10.80;99.90
25652;DHT22;13508;50.734;4.232;2024-01-30T11:39:43;10.70;99.90
25652;DHT22;13508;50.734;4.232;2024-01-30T11:42:47;10.80;99.90
25652;DHT22;13508;50.734;4.232;2024-01-30T11:45:52;10.90;99.90
25652;DHT22;13508;50.734;4.232;2024-01-30T11:48:57;10.90;99.90
25652;DHT22;13508;50.734;4.232;2024-01-30T11:52:01;10.90;99.90
25652;DHT22;13508;50.734;4.232;2024-01-30T11:55:04;10.90;99.90
25652;DHT22;13508;50.734;4.232;2024-01-30T11:58:08;11.10;99.90
25652;DHT22;13508;50.734;4.232;2024-01-30T12:01:12;11.30;99.90
25652;DHT22;13508;50.734;4.232;2024-01-30T12:04:15;11.40;99.90
25652;DHT22;13508;50.734;4.232;2024-01-30T12:07:18;11.20;99.90
25652;DHT22;13508;50.734;4.232;2024-01-30T12:10:22;11.00;99.90
25652;DHT22;13508;50.734;4.232;2024-01-30T12:13:26;11.00;99.90
25652;DHT22;13508;50.734;4.232;2024-01-30T12:16:29;11.10;99.90
25652;DHT22;13508;50.734;4.232;2024-01-30T12:19:33;10.90;99.90
25652;DHT22;13508;50.734;4.232;2024-01-30T12:22:45;10.80;99.90
25652;DHT22;13508;50.734;4.232;2024-01-30T12:25:49;10.80;99.90
25652;DHT22;13508;50.734;4.232;2024-01-30T12:28:56;10.80;99.90
25652;DHT22;13508;50.734;4.232;2024-01-30T12:32:02;10.90;99.90
25652;DHT22;13508;50.734;4.232;2024-01-30T12:35:17;11.50;99.90
25652;DHT22;13508;50.734;4.232;2024-01-30T12:38:21;12.50;99.90
25652;DHT22;13508;50.734;4.232;2024-01-30T12:41:24;12.70;99.90
25652;DHT22;13508;50.734;4.232;2024-01-30T12:44:32;12.90;99.90
25652;DHT22;13508;50.734;4.232;2024-01-30T12:47:35;12.70;99.90
25652;DHT22;13508;50.734;4.232;2024-01-30T12:50:39;12.30;99.90
25652;DHT22;13508;50.734;4.232;2024-01-30T12:53:42;11.80;99.90
25652;DHT22;13508;50.734;4.232;2024-01-30T12:56:46;11.40;99.90
25652;DHT22;13508;50.734;4.232;2024-01-30T12:59:50;11.30;99.90
25652;DHT22;13508;50.734;4.232;2024-01-30T13:02:53;11.40;99.90
25652;DHT22;13508;50.734;4.232;2024-01-30T13:05:57;11.40;99.90
25652;DHT22;13508;50.734;4.232;2024-01-30T13:09:00;11.30;99.90
25652;DHT22;13508;50.734;4.232;2024-01-30T13:12:04;11.10;99.90
25652;DHT22;13508;50.734;4.232;2024-01-30T13:15:08;11.20;99.90
25652;DHT22;13508;50.734;4.232;2024-01-30T13:18:14;11.00;99.90
25652;DHT22;13508;50.734;4.232;2024-01-30T13:21:17;11.00;99.90
25652;DHT22;13508;50.734;4.232;2024-01-30T13:24:21;11.10;99.90
25652;DHT22;13508;50.734;4.232;2024-01-30T13:27:25;11.20;99.90
25652;DHT22;13508;50.734;4.232;2024-01-30T13:30:28;11.20;99.90
25652;DHT22;13508;50.734;4.232;2024-01-30T13:33:32;11.30;99.90
25652;DHT22;13508;50.734;4.232;2024-01-30T13:36:35;11.60;99.90
25652;DHT22;13508;50.734;4.232;2024-01-30T13:39:39;11.50;99.90
25652;DHT22;13508;50.734;4.232;2024-01-30T13:42:42;11.40;99.90
25652;DHT22;13508;50.734;4.232;2024-01-30T13:45:46;11.20;99.90
25652;DHT22;13508;50.734;4.232;2024-01-30T13:48:50;11.20;99.90
25652;DHT22;13508;50.734;4.232;2024-01-30T13:51:54;11.20;99.90
25652;DHT22;13508;50.734;4.232;2024-01-30T13:54:57;11.10;99.90
25652;DHT22;13508;50.734;4.232;2024-01-30T13:58:00;10.90;99.90
25652;DHT22;13508;50.734;4.232;2024-01-30T14:01:06;11.00;99.90
25652;DHT22;13508;50.734;4.232;2024-01-30T14:04:10;10.90;99.90
25652;DHT22;13508;50.734;4.232;2024-01-30T14:07:14;10.90;99.90
25652;DHT22;13508;50.734;4.232;2024-01-30T14:10:18;11.10;99.90
25652;DHT22;13508;50.734;4.232;2024-01-30T14:13:21;11.10;99.90
25652;DHT22;13508;50.734;4.232;2024-01-30T14:16:28;10.90;99.90
25652;DHT22;13508;50.734;4.232;2024-01-30T14:19:31;10.90;99.90
25652;DHT22;13508;50.734;4.232;2024-01-30T14:22:35;11.10;99.90
25652;DHT22;13508;50.734;4.232;2024-01-30T14:25:39;11.00;99.90
25652;DHT22;13508;50.734;4.232;2024-01-30T14:28:42;10.90;99.90
25652;DHT22;13508;50.734;4.232;2024-01-30T14:31:49;10.80;99.90
25652;DHT22;13508;50.734;4.232;2024-01-30T14:34:52;10.80;99.90
25652;DHT22;13508;50.734;4.232;2024-01-30T14:37:56;10.70;99.90
25652;DHT22;13508;50.734;4.232;2024-01-30T14:40:59;10.70;99.90
25652;DHT22;13508;50.734;4.232;2024-01-30T14:44:05;10.70;99.90
25652;DHT22;13508;50.734;4.232;2024-01-30T14:47:09;10.80;99.90
25652;DHT22;13508;50.734;4.232;2024-01-30T14:50:12;10.70;99.90
25652;DHT22;13508;50.734;4.232;2024-01-30T14:53:15;10.60;99.90
25652;DHT22;13508;50.734;4.232;2024-01-30T14:56:18;10.40;99.90
25652;DHT22;13508;50.734;4.232;2024-01-30T14:59:26;10.30;99.90
25652;DHT22;13508;50.734;4.232;2024-01-30T15:02:29;10.20;99.90
25652;DHT22;13508;50.734;4.232;2024-01-30T15:05:33;10.20;99.90
25652;DHT22;13508;50.734;4.232;2024-01-30T15:08:36;10.20;99.90
25652;DHT22;13508;50.734;4.232;2024-01-30T15:11:43;10.30;99.90
25652;DHT22;13508;50.734;4.232;2024-01-30T15:14:46;10.20;99.90
25652;DHT22;13508;50.734;4.232;2024-01-30T15:17:53;10.10;99.90
25652;DHT22;13508;50.734;4.232;2024-01-30T15:20:57;10.10;99.90
25652;DHT22;13508;50.734;4.232;2024-01-30T15:24:01;10.20;99.90
25652;DHT22;13508;50.734;4.232;2024-01-30T15:27:07;10.30;99.90
25652;DHT22;13508;50.734;4.232;2024-01-30T15:30:12;10.30;99.90
25652;DHT22;13508;50.734;4.232;2024-01-30T15:33:15;10.10;99.90
25652;DHT22;13508;50.734;4.232;2024-01-30T15:36:19;10.20;99.90
25652;DHT22;13508;50.734;4.232;2024-01-30T15:39:22;10.10;99.90
25652;DHT22;13508;50.734;4.232;2024-01-30T15:42:26;10.00;99.90
25652;DHT22;13508;50.734;4.232;2024-01-30T15:45:29;10.00;99.90
25652;DHT22;13508;50.734;4.232;2024-01-30T15:48:33;10.10;99.90
25652;DHT22;13508;50.734;4.232;2024-01-30T15:51:37;10.10;99.90
25652;DHT22;13508;50.734;4.232;2024-01-30T15:54:40;10.00;99.90
25652;DHT22;13508;50.734;4.232;2024-01-30T15:57:43;10.00;99.90
25652;DHT22;13508;50.734;4.232;2024-01-30T16:00:47;9.90;99.90
25652;DHT22;13508;50.734;4.232;2024-01-30T16:03:50;9.90;99.90
25652;DHT22;13508;50.734;4.232;2024-01-30T16:06:56;9.80;99.90
25652;DHT22;13508;50.734;4.232;2024-01-30T16:10:00;9.80;99.90
25652;DHT22;13508;50.734;4.232;2024-01-30T16:13:04;9.70;99.90
25652;DHT22;13508;50.734;4.232;2024-01-30T16:16:09;9.70;99.90
25652;DHT22;13508;50.734;4.232;2024-01-30T16:19:13;9.80;99.90
25652;DHT22;13508;50.734;4.232;2024-01-30T16:22:18;9.70;99.90
25652;DHT22;13508;50.734;4.232;2024-01-30T16:25:24;9.60;99.90
25652;DHT22;13508;50.734;4.232;2024-01-30T16:28:27;9.70;99.90
25652;DHT22;13508;50.734;4.232;2024-01-30T16:31:32;9.70;99.90
25652;DHT22;13508;50.734;4.232;2024-01-30T16:34:35;9.90;99.90
25652;DHT22;13508;50.734;4.232;2024-01-30T16:37:39;10.10;99.90
25652;DHT22;13508;50.734;4.232;2024-01-30T16:40:45;10.00;99.90
25652;DHT22;13508;50.734;4.232;2024-01-30T16:43:49;9.70;99.90
25652;DHT22;13508;50.734;4.232;2024-01-30T16:46:52;9.60;99.90
25652;DHT22;13508;50.734;4.232;2024-01-30T16:49:56;9.60;99.90
25652;DHT22;13508;50.734;4.232;2024-01-30T16:52:59;9.60;99.90
25652;DHT22;13508;50.734;4.232;2024-01-30T16:56:03;9.60;99.90
25652;DHT22;13508;50.734;4.232;2024-01-30T16:59:07;9.40;99.90
25652;DHT22;13508;50.734;4.232;2024-01-30T17:02:10;9.30;99.90
25652;DHT22;13508;50.734;4.232;2024-01-30T17:05:14;9.20;99.90
25652;DHT22;13508;50.734;4.232;2024-01-30T17:08:17;9.10;99.90
25652;DHT22;13508;50.734;4.232;2024-01-30T17:11:21;9.20;99.90
25652;DHT22;13508;50.734;4.232;2024-01-30T17:14:25;9.20;99.90
25652;DHT22;13508;50.734;4.232;2024-01-30T17:17:28;9.20;99.90
25652;DHT22;13508;50.734;4.232;2024-01-30T17:20:32;9.20;99.90
25652;DHT22;13508;50.734;4.232;2024-01-30T17:23:35;9.00;99.90
25652;DHT22;13508;50.734;4.232;2024-01-30T17:26:40;8.90;99.90
25652;DHT22;13508;50.734;4.232;2024-01-30T17:29:44;8.90;99.90
25652;DHT22;13508;50.734;4.232;2024-01-30T17:32:47;8.90;99.90
25652;DHT22;13508;50.734;4.232;2024-01-30T17:35:50;8.90;99.90
25652;DHT22;13508;50.734;4.232;2024-01-30T17:38:54;9.00;99.90
25652;DHT22;13508;50.734;4.232;2024-01-30T17:41:57;9.00;99.90
25652;DHT22;13508;50.734;4.232;2024-01-30T17:45:02;8.90;99.90
25652;DHT22;13508;50.734;4.232;2024-01-30T17:48:05;8.90;99.90
25652;DHT22;13508;50.734;4.232;2024-01-30T17:51:09;9.00;99.90
25652;DHT22;13508;50.734;4.232;2024-01-30T17:54:12;9.00;99.90
25652;DHT22;13508;50.734;4.232;2024-01-30T17:57:17;9.20;99.90
25652;DHT22;13508;50.734;4.232;2024-01-30T18:00:21;9.20;99.90
25652;DHT22;13508;50.734;4.232;2024-01-30T18:03:25;9.10;99.90
25652;DHT22;13508;50.734;4.232;2024-01-30T18:06:28;8.90;99.90
25652;DHT22;13508;50.734;4.232;2024-01-30T18:09:32;8.90;99.90
25652;DHT22;13508;50.734;4.232;2024-01-30T18:12:36;8.90;99.90
25652;DHT22;13508;50.734;4.232;2024-01-30T18:15:39;8.80;99.90
25652;DHT22;13508;50.734;4.232;2024-01-30T18:18:42;9.00;99.90
25652;DHT22;13508;50.734;4.232;2024-01-30T18:21:46;8.90;99.90
25652;DHT22;13508;50.734;4.232;2024-01-30T18:24:50;8.90;99.90
25652;DHT22;13508;50.734;4.232;2024-01-30T18:27:53;9.00;99.90
25652;DHT22;13508;50.734;4.232;2024-01-30T18:30:57;9.10;99.90
25652;DHT22;13508;50.734;4.232;2024-01-30T18:34:01;9.00;99.90
25652;DHT22;13508;50.734;4.232;2024-01-30T18:37:04;9.00;99.90
25652;DHT22;13508;50.734;4.232;2024-01-30T18:40:09;9.10;99.90
25652;DHT22;13508;50.734;4.232;2024-01-30T18:43:13;9.20;99.90
25652;DHT22;13508;50.734;4.232;2024-01-30T18:46:17;9.20;99.90
25652;DHT22;13508;50.734;4.232;2024-01-30T18:49:24;9.20;99.90
25652;DHT22;13508;50.734;4.232;2024-01-30T18:52:31;9.20;99.90
25652;DHT22;13508;50.734;4.232;2024-01-30T18:55:34;9.10;99.90
25652;DHT22;13508;50.734;4.232;2024-01-30T18:58:38;9.10;99.90
25652;DHT22;13508;50.734;4.232;2024-01-30T19:01:41;9.10;99.90
25652;DHT22;13508;50.734;4.232;2024-01-30T19:04:44;9.20;99.90
25652;DHT22;13508;50.734;4.232;2024-01-30T19:07:50;9.10;99.90
25652;DHT22;13508;50.734;4.232;2024-01-30T19:10:54;8.90;99.90
25652;DHT22;13508;50.734;4.232;2024-01-30T19:13:58;8.80;99.90
25652;DHT22;13508;50.734;4.232;2024-01-30T19:17:01;8.80;99.90
25652;DHT22;13508;50.734;4.232;2024-01-30T19:20:05;8.90;99.90
25652;DHT22;13508;50.734;4.232;2024-01-30T19:23:10;8.90;99.90
25652;DHT22;13508;50.734;4.232;2024-01-30T19:26:14;9.00;99.90
25652;DHT22;13508;50.734;4.232;2024-01-30T19:29:18;8.90;99.90
25652;DHT22;13508;50.734;4.232;2024-01-30T19:32:22;8.80;99.90